createdAt,value
2018-07-31T00:01:20.192Z,56.71
2018-07-31T00:03:49.274Z,56.43
2018-07-31T00:06:18.384Z,56.23
2018-07-31T00:08:48.255Z,57.25
2018-07-31T00:11:17.572Z,57.56
2018-07-31T00:13:46.647Z,56.43
2018-07-31T00:16:15.779Z,57.66
2018-07-31T00:18:44.927Z,58.14
2018-07-31T00:21:14.048Z,57.71
2018-07-31T00:23:43.164Z,58.05
2018-07-31T00:26:12.253Z,58.56
2018-07-31T00:28:41.425Z,58.34
2018-07-31T00:31:10.520Z,57.96
2018-07-31T00:33:39.603Z,58.20
2018-07-31T00:36:08.763Z,59.06
2018-07-31T00:38:37.857Z,58.86
2018-07-31T00:41:07.008Z,58.65
2018-07-31T00:43:36.143Z,58.67
2018-07-31T00:46:05.223Z,58.44
2018-07-31T00:48:34.325Z,58.06
2018-07-31T00:51:03.410Z,58.58
2018-07-31T00:53:32.499Z,59.03
2018-07-31T00:56:01.600Z,59.37
2018-07-31T00:58:30.712Z,59.23
2018-07-31T01:00:59.788Z,59.06
2018-07-31T01:03:28.880Z,58.56
2018-07-31T01:05:57.957Z,58.56
2018-07-31T01:08:27.084Z,59.26
2018-07-31T01:10:56.202Z,60.13
2018-07-31T01:13:25.286Z,60.96
2018-07-31T01:15:54.356Z,60.22
2018-07-31T01:18:23.432Z,60.45
2018-07-31T01:20:52.732Z,60.94
2018-07-31T01:23:21.808Z,60.51
2018-07-31T01:25:51.024Z,61.12
2018-07-31T01:28:20.084Z,60.09
2018-07-31T01:30:49.203Z,60.13
2018-07-31T01:33:18.319Z,59.40
2018-07-31T01:35:47.412Z,59.10
2018-07-31T01:38:16.484Z,59.50
2018-07-31T01:40:45.577Z,60.44
2018-07-31T01:43:14.669Z,60.65
2018-07-31T01:45:43.770Z,60.07
2018-07-31T01:48:12.845Z,60.08
2018-07-31T01:50:41.961Z,60.21
2018-07-31T01:53:11.080Z,60.94
2018-07-31T01:55:40.187Z,61.07
2018-07-31T01:58:09.284Z,61.18
2018-07-31T02:00:38.407Z,61.42
2018-07-31T02:03:07.499Z,60.59
2018-07-31T02:05:36.592Z,61.31
2018-07-31T02:08:05.928Z,61.03
2018-07-31T02:10:35.029Z,61.70
2018-07-31T02:13:04.131Z,61.13
2018-07-31T02:15:33.228Z,61.37
2018-07-31T02:18:02.312Z,61.81
2018-07-31T02:20:31.412Z,60.93
2018-07-31T02:23:00.520Z,61.26
2018-07-31T02:25:29.652Z,62.19
2018-07-31T02:27:58.787Z,61.92
2018-07-31T02:30:27.796Z,60.99
2018-07-31T02:32:56.894Z,61.35
2018-07-31T02:35:25.991Z,61.61
2018-07-31T02:37:55.089Z,61.94
2018-07-31T02:40:24.204Z,62.10
2018-07-31T02:42:53.305Z,62.17
2018-07-31T02:45:22.376Z,62.23
2018-07-31T02:47:51.492Z,62.09
2018-07-31T02:50:20.564Z,61.60
2018-07-31T02:52:49.693Z,61.95
2018-07-31T02:55:18.756Z,61.15
2018-07-31T02:57:47.844Z,61.11
2018-07-31T03:00:16.999Z,61.71
2018-07-31T03:02:46.083Z,61.39
2018-07-31T03:05:15.196Z,62.14
2018-07-31T03:07:44.313Z,62.27
2018-07-31T03:10:13.396Z,63.07
2018-07-31T03:12:42.503Z,62.72
2018-07-31T03:15:12.036Z,63.75
2018-07-31T03:17:41.129Z,63.14
2018-07-31T03:20:10.224Z,63.84
2018-07-31T03:22:39.324Z,64.08
2018-07-31T03:25:08.919Z,63.63
2018-07-31T03:27:38.021Z,64.04
2018-07-31T03:30:07.132Z,64.05
2018-07-31T03:32:36.265Z,64.18
2018-07-31T03:35:05.403Z,63.81
2018-07-31T03:37:34.497Z,64.01
2018-07-31T03:40:03.581Z,64.22
2018-07-31T03:42:32.655Z,63.79
2018-07-31T03:45:01.783Z,62.91
2018-07-31T03:47:30.851Z,63.70
2018-07-31T03:50:01.013Z,62.85
2018-07-31T03:52:30.069Z,63.29
2018-07-31T03:54:59.205Z,63.32
2018-07-31T03:57:28.305Z,63.81
2018-07-31T03:59:57.418Z,64.26
2018-07-31T04:02:26.517Z,64.14
2018-07-31T04:04:55.624Z,64.97
2018-07-31T04:07:24.748Z,64.60
2018-07-31T04:09:53.860Z,64.80
2018-07-31T04:12:22.946Z,64.74
2018-07-31T04:14:53.061Z,64.09
2018-07-31T04:17:22.194Z,63.73
2018-07-31T04:19:51.325Z,63.99
2018-07-31T04:22:20.440Z,64.22
2018-07-31T04:24:49.572Z,64.64
2018-07-31T04:27:18.678Z,64.83
2018-07-31T04:29:47.793Z,64.77
2018-07-31T04:32:16.900Z,64.16
2018-07-31T04:34:46.033Z,65.22
2018-07-31T04:37:15.114Z,65.20
2018-07-31T04:39:44.221Z,64.54
2018-07-31T04:42:13.317Z,64.29
2018-07-31T04:44:42.433Z,64.84
2018-07-31T04:47:11.526Z,65.04
2018-07-31T04:49:40.616Z,65.04
2018-07-31T04:52:09.717Z,64.38
2018-07-31T04:54:38.805Z,65.02
2018-07-31T04:57:07.928Z,65.13
2018-07-31T04:59:37.029Z,64.48
2018-07-31T05:02:06.148Z,64.14
2018-07-31T05:04:35.260Z,64.41
2018-07-31T05:07:04.402Z,62.97
2018-07-31T05:09:33.480Z,63.16
2018-07-31T05:12:02.602Z,63.21
2018-07-31T05:14:31.689Z,62.88
2018-07-31T05:17:00.840Z,61.97
2018-07-31T05:19:29.923Z,62.40
2018-07-31T05:21:59.032Z,62.25
2018-07-31T05:24:28.127Z,61.91
2018-07-31T05:26:57.243Z,61.01
2018-07-31T05:29:26.323Z,60.83
2018-07-31T05:31:55.455Z,60.29
2018-07-31T05:34:24.584Z,59.78
2018-07-31T05:36:53.686Z,59.61
2018-07-31T05:39:22.761Z,59.42
2018-07-31T05:41:51.881Z,58.41
2018-07-31T05:44:20.988Z,58.31
2018-07-31T05:46:50.093Z,57.59
2018-07-31T05:49:19.193Z,56.68
2018-07-31T05:51:48.336Z,55.89
2018-07-31T05:54:17.429Z,55.35
2018-07-31T05:56:46.532Z,54.71
2018-07-31T05:59:15.604Z,54.82
2018-07-31T06:01:44.732Z,54.17
2018-07-31T06:04:13.817Z,53.66
2018-07-31T06:06:42.893Z,53.25
2018-07-31T06:09:12.068Z,53.60
2018-07-31T06:11:41.168Z,52.13
2018-07-31T06:14:10.297Z,52.47
2018-07-31T06:16:40.200Z,51.49
2018-07-31T06:19:09.468Z,51.24
2018-07-31T06:21:38.704Z,50.17
2018-07-31T06:24:07.821Z,50.65
2018-07-31T06:26:36.908Z,50.57
2018-07-31T06:29:06.067Z,50.71
2018-07-31T06:31:35.172Z,49.67
2018-07-31T06:34:04.260Z,49.36
2018-07-31T06:36:33.364Z,48.17
2018-07-31T06:39:02.649Z,48.33
2018-07-31T06:41:31.744Z,47.30
2018-07-31T06:44:00.943Z,48.32
2018-07-31T06:46:30.080Z,46.88
2018-07-31T06:48:59.189Z,47.48
2018-07-31T06:51:28.293Z,47.15
2018-07-31T06:53:57.412Z,47.09
2018-07-31T06:56:26.553Z,47.10
2018-07-31T06:58:56.056Z,47.20
2018-07-31T07:01:25.200Z,47.84
2018-07-31T07:03:54.327Z,47.21
2018-07-31T07:06:24.449Z,46.36
2018-07-31T07:08:53.640Z,45.88
2018-07-31T07:11:22.740Z,46.30
2018-07-31T07:13:51.856Z,45.93
2018-07-31T07:16:20.987Z,46.01
2018-07-31T07:18:50.073Z,45.23
2018-07-31T07:21:19.180Z,44.53
2018-07-31T07:23:48.691Z,45.11
2018-07-31T07:26:17.844Z,45.00
2018-07-31T07:28:46.956Z,44.88
2018-07-31T07:31:16.097Z,45.42
2018-07-31T07:33:45.217Z,45.71
2018-07-31T07:36:14.302Z,44.31
2018-07-31T07:38:43.434Z,44.31
2018-07-31T07:41:12.859Z,43.00
2018-07-31T07:43:42.645Z,42.75
2018-07-31T07:46:11.761Z,42.53
2018-07-31T07:48:40.906Z,41.70
2018-07-31T07:51:10.021Z,41.53
2018-07-31T07:53:39.121Z,41.78
2018-07-31T07:56:08.257Z,42.47
2018-07-31T07:58:37.359Z,42.24
2018-07-31T08:01:06.613Z,41.91
2018-07-31T08:03:35.702Z,40.05
2018-07-31T08:06:04.792Z,39.93
2018-07-31T08:08:34.689Z,39.09
2018-07-31T08:11:03.935Z,39.94
2018-07-31T08:13:33.037Z,39.89
2018-07-31T08:16:02.113Z,38.49
2018-07-31T08:18:31.232Z,40.45
2018-07-31T08:21:00.520Z,40.47
2018-07-31T08:23:29.625Z,40.56
2018-07-31T08:25:58.717Z,39.95
2018-07-31T08:28:27.816Z,41.39
2018-07-31T08:30:56.920Z,40.32
2018-07-31T08:33:26.102Z,39.96
2018-07-31T08:35:55.519Z,40.51
2018-07-31T08:38:24.630Z,41.47
2018-07-31T08:40:53.839Z,41.55
2018-07-31T08:43:22.953Z,40.95
2018-07-31T08:45:52.508Z,42.82
2018-07-31T08:48:21.613Z,42.40
2018-07-31T08:50:50.756Z,42.52
2018-07-31T08:53:19.868Z,42.99
2018-07-31T08:55:48.986Z,43.01
2018-07-31T08:58:18.059Z,42.72
2018-07-31T09:00:47.168Z,43.19
2018-07-31T09:03:16.258Z,43.16
2018-07-31T09:05:45.412Z,43.68
2018-07-31T09:08:14.570Z,42.69
2018-07-31T09:10:43.625Z,43.56
2018-07-31T09:13:12.709Z,42.48
2018-07-31T09:15:41.813Z,43.27
2018-07-31T09:18:10.909Z,42.25
2018-07-31T09:20:40.029Z,42.34
2018-07-31T09:23:09.120Z,41.96
2018-07-31T09:25:43.579Z,40.94
2018-07-31T09:28:12.948Z,41.16
2018-07-31T09:30:47.508Z,40.90
2018-07-31T09:33:16.534Z,40.34
2018-07-31T09:35:45.890Z,40.55
2018-07-31T09:38:15.006Z,39.38
2018-07-31T09:40:44.117Z,38.83
2018-07-31T09:43:13.216Z,38.00
2018-07-31T09:45:42.329Z,38.56
2018-07-31T09:48:11.420Z,38.93
2018-07-31T09:50:40.565Z,38.18
2018-07-31T09:53:09.612Z,37.42
2018-07-31T09:55:38.760Z,37.21
2018-07-31T09:58:07.863Z,37.31
2018-07-31T10:00:42.324Z,36.39
2018-07-31T10:03:11.405Z,35.03
2018-07-31T10:05:40.520Z,35.66
2018-07-31T10:08:09.776Z,35.58
2018-07-31T10:10:38.865Z,36.60
2018-07-31T10:13:08.503Z,36.30
2018-07-31T10:15:37.595Z,34.60
2018-07-31T10:18:06.789Z,35.39
2018-07-31T10:20:35.911Z,34.38
2018-07-31T10:23:05.025Z,33.39
2018-07-31T10:25:34.123Z,33.67
2018-07-31T10:28:03.260Z,33.05
2018-07-31T10:30:33.359Z,33.48
2018-07-31T10:33:02.908Z,33.78
2018-07-31T10:35:31.996Z,34.25
2018-07-31T10:38:01.171Z,34.33
2018-07-31T10:40:30.245Z,35.50
2018-07-31T10:42:59.413Z,34.38
2018-07-31T10:45:28.522Z,34.22
2018-07-31T10:47:57.620Z,34.12
2018-07-31T10:50:26.704Z,35.20
2018-07-31T10:52:55.817Z,35.21
2018-07-31T10:55:24.890Z,34.37
2018-07-31T10:57:54.005Z,34.71
2018-07-31T11:00:24.106Z,34.61
2018-07-31T11:02:53.301Z,33.22
2018-07-31T11:05:22.304Z,33.95
2018-07-31T11:07:53.561Z,33.91
2018-07-31T11:10:22.731Z,33.44
2018-07-31T11:12:51.788Z,32.79
2018-07-31T11:15:22.760Z,32.93
2018-07-31T11:17:52.335Z,32.03
2018-07-31T11:20:21.568Z,31.21
2018-07-31T11:22:50.732Z,30.50
2018-07-31T11:25:20.164Z,30.73
2018-07-31T11:27:49.349Z,31.14
2018-07-31T11:30:18.585Z,30.66
2018-07-31T11:32:51.334Z,29.47
2018-07-31T11:35:20.945Z,29.88
2018-07-31T11:37:50.909Z,30.61
2018-07-31T11:40:20.012Z,31.04
2018-07-31T11:42:49.236Z,29.77
2018-07-31T11:45:21.806Z,31.09
2018-07-31T11:47:51.582Z,28.56
2018-07-31T11:50:20.839Z,30.23
2018-07-31T11:52:49.927Z,29.89
2018-07-31T11:55:19.852Z,30.82
2018-07-31T11:57:50.610Z,30.82
2018-07-31T12:00:19.740Z,30.78
2018-07-31T12:02:48.865Z,30.15
2018-07-31T12:05:17.971Z,30.61
2018-07-31T12:07:47.089Z,29.60
2018-07-31T12:10:16.205Z,30.22
2018-07-31T12:12:45.308Z,29.34
2018-07-31T12:15:14.421Z,27.43
2018-07-31T12:17:43.533Z,28.09
2018-07-31T12:20:12.632Z,27.95
2018-07-31T12:22:41.732Z,27.76
2018-07-31T12:25:10.849Z,28.28
2018-07-31T12:27:39.973Z,28.51
2018-07-31T12:30:10.259Z,28.66
2018-07-31T12:32:40.319Z,28.41
2018-07-31T12:35:09.709Z,27.93
2018-07-31T12:37:38.847Z,29.57
2018-07-31T12:40:08.096Z,28.38
2018-07-31T12:42:37.245Z,28.56
2018-07-31T12:45:06.341Z,28.27
2018-07-31T12:47:35.511Z,27.65
2018-07-31T12:50:05.024Z,28.77
2018-07-31T12:52:35.156Z,29.35
2018-07-31T12:55:04.376Z,28.46
2018-07-31T12:57:33.497Z,28.41
2018-07-31T13:00:02.672Z,28.44
2018-07-31T13:02:31.752Z,28.58
2018-07-31T13:05:00.832Z,28.17
2018-07-31T13:07:30.011Z,28.22
2018-07-31T13:09:59.088Z,27.75
2018-07-31T13:12:28.185Z,27.14
2018-07-31T13:14:57.277Z,28.06
2018-07-31T13:17:26.401Z,28.45
2018-07-31T13:19:55.505Z,28.29
2018-07-31T13:22:24.656Z,28.40
2018-07-31T13:24:53.745Z,28.82
2018-07-31T13:27:22.834Z,28.54
2018-07-31T13:29:51.939Z,27.85
2018-07-31T13:32:21.064Z,27.53
2018-07-31T13:34:50.191Z,26.70
2018-07-31T13:37:19.303Z,26.90
2018-07-31T13:39:48.395Z,27.64
2018-07-31T13:42:17.492Z,26.55
2018-07-31T13:44:46.743Z,25.71
2018-07-31T13:47:15.849Z,27.08
2018-07-31T13:49:44.957Z,27.18
2018-07-31T13:52:14.061Z,26.76
2018-07-31T13:54:43.160Z,27.27
2018-07-31T13:57:12.268Z,28.10
2018-07-31T13:59:41.377Z,28.70
2018-07-31T14:02:10.465Z,28.02
2018-07-31T14:04:39.725Z,28.79
2018-07-31T14:07:08.913Z,28.00
2018-07-31T14:09:37.957Z,29.09
2018-07-31T14:12:07.122Z,28.67
2018-07-31T14:14:36.218Z,29.13
2018-07-31T14:17:05.305Z,28.91
2018-07-31T14:19:34.408Z,28.86
2018-07-31T14:22:03.488Z,27.66
2018-07-31T14:24:32.710Z,28.03
2018-07-31T14:27:01.829Z,27.92
2018-07-31T14:29:31.360Z,28.03
2018-07-31T14:32:00.472Z,28.51
2018-07-31T14:34:29.587Z,28.40
2018-07-31T14:36:58.710Z,28.50
2018-07-31T14:39:27.816Z,28.65
2018-07-31T14:41:56.945Z,28.46
2018-07-31T14:44:26.036Z,28.28
2018-07-31T14:46:55.730Z,28.22
2018-07-31T14:49:24.944Z,28.87
2018-07-31T14:51:54.880Z,28.37
2018-07-31T14:54:23.966Z,27.73
2018-07-31T14:56:53.099Z,27.98
2018-07-31T14:59:22.196Z,27.16
2018-07-31T15:01:51.312Z,28.58
2018-07-31T15:04:20.396Z,27.98
2018-07-31T15:06:49.521Z,27.91
2018-07-31T15:09:18.616Z,27.39
2018-07-31T15:11:47.857Z,28.90
2018-07-31T15:14:16.965Z,27.99
2018-07-31T15:16:46.072Z,27.94
2018-07-31T15:19:15.148Z,28.20
2018-07-31T15:21:44.250Z,28.00
2018-07-31T15:24:13.345Z,27.69
2018-07-31T15:26:42.461Z,28.36
2018-07-31T15:29:11.547Z,27.99
2018-07-31T15:31:40.665Z,28.20
2018-07-31T15:34:09.768Z,28.67
2018-07-31T15:36:38.850Z,28.31
2018-07-31T15:39:11.633Z,28.37
2018-07-31T15:41:41.062Z,29.24
2018-07-31T15:44:10.433Z,28.65
2018-07-31T15:46:39.512Z,29.53
2018-07-31T15:49:08.652Z,29.35
2018-07-31T15:51:37.746Z,28.54
2018-07-31T15:54:06.993Z,28.45
2018-07-31T15:56:36.064Z,28.51
2018-07-31T15:59:05.597Z,28.61
2018-07-31T16:01:34.746Z,28.82
2018-07-31T16:04:03.832Z,28.63
2018-07-31T16:06:32.943Z,28.48
2018-07-31T16:09:02.079Z,28.42
2018-07-31T16:11:31.161Z,28.15
2018-07-31T16:14:00.292Z,28.66
2018-07-31T16:16:29.361Z,28.20
2018-07-31T16:18:58.461Z,28.51
2018-07-31T16:21:27.557Z,28.99
2018-07-31T16:23:56.703Z,28.63
2018-07-31T16:26:25.820Z,28.97
2018-07-31T16:28:55.037Z,29.23
2018-07-31T16:31:24.920Z,29.31
2018-07-31T16:33:54.032Z,29.01
2018-07-31T16:36:23.144Z,28.77
2018-07-31T16:38:53.484Z,28.64
2018-07-31T16:41:24.200Z,29.69
2018-07-31T16:43:54.310Z,29.82
2018-07-31T16:46:24.368Z,29.56
2018-07-31T16:48:54.298Z,29.86
2018-07-31T16:51:24.277Z,29.62
2018-07-31T16:53:53.449Z,30.44
2018-07-31T16:56:22.548Z,31.40
2018-07-31T16:58:51.712Z,32.23
2018-07-31T17:01:20.808Z,32.72
2018-07-31T17:03:49.993Z,33.66
2018-07-31T17:06:19.152Z,34.88
2018-07-31T17:08:48.248Z,34.90
2018-07-31T17:11:17.363Z,35.15
2018-07-31T17:13:46.450Z,35.07
2018-07-31T17:16:15.650Z,35.91
2018-07-31T17:18:44.772Z,36.02
2018-07-31T17:21:13.889Z,36.49
2018-07-31T17:23:42.974Z,36.48
2018-07-31T17:26:12.420Z,36.77
2018-07-31T17:28:41.928Z,37.35
2018-07-31T17:31:11.040Z,37.15
2018-07-31T17:33:40.114Z,37.23
2018-07-31T17:36:09.240Z,37.72
2018-07-31T17:38:38.337Z,38.70
2018-07-31T17:41:07.445Z,38.75
2018-07-31T17:43:36.621Z,39.93
2018-07-31T17:46:05.749Z,39.69
2018-07-31T17:48:34.896Z,38.92
2018-07-31T17:51:03.945Z,38.62
2018-07-31T17:53:33.080Z,39.89
2018-07-31T17:56:02.193Z,40.88
2018-07-31T17:58:32.328Z,41.21
2018-07-31T18:01:01.744Z,41.65
2018-07-31T18:03:31.325Z,42.28
2018-07-31T18:06:00.524Z,42.33
2018-07-31T18:08:29.719Z,41.59
2018-07-31T18:10:58.807Z,41.55
2018-07-31T18:13:28.033Z,41.28
2018-07-31T18:15:57.237Z,42.57
2018-07-31T18:18:28.032Z,42.27
2018-07-31T18:20:57.508Z,42.36
2018-07-31T18:23:26.817Z,42.15
2018-07-31T18:25:56.772Z,42.43
2018-07-31T18:28:26.192Z,42.93
2018-07-31T18:30:55.377Z,43.09
2018-07-31T18:33:24.473Z,43.01
2018-07-31T18:35:53.564Z,44.39
2018-07-31T18:38:22.705Z,44.33
2018-07-31T18:40:51.825Z,43.85
2018-07-31T18:43:21.024Z,44.22
2018-07-31T18:45:50.124Z,44.85
2018-07-31T18:48:19.236Z,45.32
2018-07-31T18:50:48.409Z,45.17
2018-07-31T18:53:17.640Z,45.34
2018-07-31T18:55:46.782Z,45.77
2018-07-31T18:58:15.876Z,46.35
2018-07-31T19:00:44.992Z,46.48
2018-07-31T19:03:14.162Z,46.69
2018-07-31T19:05:43.258Z,47.07
2018-07-31T19:08:12.446Z,47.17
2018-07-31T19:10:41.644Z,46.79
2018-07-31T19:13:10.759Z,47.36
2018-07-31T19:15:39.876Z,47.75
2018-07-31T19:18:08.977Z,47.86
2018-07-31T19:20:38.082Z,47.23
2018-07-31T19:23:07.204Z,48.18
2018-07-31T19:25:36.305Z,48.29
2018-07-31T19:28:05.560Z,47.28
2018-07-31T19:30:34.607Z,47.15
2018-07-31T19:33:03.730Z,47.62
2018-07-31T19:35:32.849Z,47.93
2018-07-31T19:38:01.980Z,47.97
2018-07-31T19:40:31.159Z,49.13
2018-07-31T19:43:00.225Z,48.86
2018-07-31T19:45:29.352Z,49.73
2018-07-31T19:47:58.480Z,49.85
2018-07-31T19:50:27.600Z,49.81
2018-07-31T19:52:56.676Z,50.42
2018-07-31T19:55:25.777Z,49.85
2018-07-31T19:57:54.872Z,49.63
2018-07-31T20:00:23.957Z,50.00
2018-07-31T20:02:53.096Z,50.70
2018-07-31T20:05:22.197Z,50.18
2018-07-31T20:07:51.332Z,50.29
2018-07-31T20:10:20.447Z,49.97
2018-07-31T20:12:49.544Z,50.51
2018-07-31T20:15:18.665Z,51.12
2018-07-31T20:17:47.825Z,50.32
2018-07-31T20:20:16.912Z,50.81
2018-07-31T20:22:46.016Z,51.11
2018-07-31T20:25:15.113Z,50.44
2018-07-31T20:27:44.292Z,50.95
2018-07-31T20:30:13.402Z,50.52
2018-07-31T20:32:42.520Z,50.29
2018-07-31T20:35:11.624Z,51.16
2018-07-31T20:37:41.656Z,51.34
2018-07-31T20:40:14.611Z,50.83
2018-07-31T20:42:43.889Z,50.87
2018-07-31T20:45:12.991Z,51.28
2018-07-31T20:47:42.139Z,50.88
2018-07-31T20:50:11.228Z,50.53
2018-07-31T20:52:41.020Z,49.07
2018-07-31T20:55:10.199Z,47.71
2018-07-31T20:57:39.288Z,49.11
2018-07-31T21:00:08.444Z,48.45
2018-07-31T21:02:37.552Z,48.19
2018-07-31T21:05:06.721Z,48.43
2018-07-31T21:07:35.817Z,48.01
2018-07-31T21:10:05.637Z,46.26
2018-07-31T21:12:34.764Z,45.97
2018-07-31T21:15:03.920Z,45.45
2018-07-31T21:17:33.642Z,45.63
2018-07-31T21:20:02.741Z,44.91
2018-07-31T21:22:31.809Z,44.65
2018-07-31T21:25:00.918Z,44.55
2018-07-31T21:27:29.995Z,45.35
2018-07-31T21:29:59.107Z,44.50
2018-07-31T21:32:28.180Z,45.18
2018-07-31T21:34:57.265Z,44.77
2018-07-31T21:37:26.333Z,44.76
2018-07-31T21:39:55.433Z,44.42
2018-07-31T21:42:24.520Z,45.17
2018-07-31T21:44:53.612Z,44.48
2018-07-31T21:47:22.708Z,45.33
2018-07-31T21:49:51.871Z,45.59
2018-07-31T21:52:20.983Z,44.74
2018-07-31T21:54:50.109Z,45.23
2018-07-31T21:57:19.179Z,45.21
2018-07-31T21:59:48.312Z,44.99
2018-07-31T22:02:17.404Z,45.00
2018-07-31T22:04:46.488Z,45.07
2018-07-31T22:07:15.612Z,45.33
2018-07-31T22:09:45.531Z,46.14
2018-07-31T22:12:14.608Z,45.65
2018-07-31T22:14:43.740Z,45.86
2018-07-31T22:17:12.817Z,46.09
2018-07-31T22:19:41.940Z,46.51
2018-07-31T22:22:11.053Z,46.76
2018-07-31T22:24:40.226Z,46.86
2018-07-31T22:27:09.261Z,46.31
2018-07-31T22:29:38.376Z,47.54
2018-07-31T22:32:07.537Z,48.51
2018-07-31T22:34:36.612Z,49.27
2018-07-31T22:37:05.727Z,50.32
2018-07-31T22:39:34.809Z,53.02
2018-07-31T22:42:03.921Z,55.39
2018-07-31T22:44:33.000Z,56.21
2018-07-31T22:47:02.116Z,56.29
2018-07-31T22:49:31.184Z,57.35
2018-07-31T22:52:00.288Z,57.97
2018-07-31T22:54:29.363Z,58.14
2018-07-31T22:56:58.456Z,58.10
2018-07-31T22:59:27.540Z,58.45
2018-07-31T23:01:56.652Z,57.76
2018-07-31T23:04:25.749Z,57.91
2018-07-31T23:06:54.843Z,58.48
2018-07-31T23:09:23.975Z,58.76
2018-07-31T23:11:53.092Z,59.57
2018-07-31T23:14:22.181Z,59.62
2018-07-31T23:16:51.267Z,59.76
2018-07-31T23:19:20.388Z,59.90
2018-07-31T23:21:49.504Z,60.20
2018-07-31T23:24:18.569Z,60.45
2018-07-31T23:26:47.660Z,60.55
2018-07-31T23:29:16.735Z,60.33
2018-07-31T23:31:45.840Z,60.27
2018-07-31T23:34:14.912Z,59.29
2018-07-31T23:36:44.011Z,59.02
2018-07-31T23:39:13.089Z,58.77
2018-07-31T23:41:42.192Z,58.17
2018-07-31T23:44:11.259Z,57.59
2018-07-31T23:46:40.364Z,57.26
2018-07-31T23:49:09.439Z,57.29
2018-07-31T23:51:38.556Z,57.04
2018-07-31T23:54:07.628Z,55.96
2018-07-31T23:56:36.721Z,54.61
2018-07-31T23:59:05.818Z,54.77
